Time;durP1;ratioP1;P1;durP2;ratioP2;P2;SDS_P1;SDS_P2;PMS_P1;PMS_P2;Temp;Humidity;BMP_temperature;BMP_pressure;BME280_temperature;BME280_humidity;BME280_pressure;Samples;Min_cycle;Max_cycle;Signal;HPM_P1;HPM_P2
2022/07/09 00:01:54;;;;;;;4.60;1.80;;;12.20;99.50;;;;;;5133609;28;20885;-75
2022/07/09 00:04:20;;;;;;;5.43;1.70;;;12.20;99.80;;;;;;5114763;28;20629;-76
2022/07/09 00:06:46;;;;;;;4.10;1.80;;;12.10;99.90;;;;;;5125373;28;20190;-76
2022/07/09 00:09:13;;;;;;;3.13;1.70;;;12.10;99.80;;;;;;5119657;28;20179;-75
2022/07/09 00:11:38;;;;;;;4.70;1.30;;;12.00;99.90;;;;;;5134473;27;20194;-75
2022/07/09 00:14:04;;;;;;;3.80;1.40;;;12.10;99.90;;;;;;5132675;28;20417;-75
2022/07/09 00:16:30;;;;;;;3.70;1.63;;;12.10;99.80;;;;;;5120297;28;20625;-75
2022/07/09 00:18:55;;;;;;;3.13;1.70;;;12.10;99.60;;;;;;5119985;28;20188;-75
2022/07/09 00:21:21;;;;;;;6.20;2.30;;;12.10;99.60;;;;;;5112271;28;20262;-75
2022/07/09 00:23:47;;;;;;;7.67;1.57;;;12.10;99.80;;;;;;5112417;28;20188;-76
2022/07/09 00:26:12;;;;;;;5.40;1.33;;;12.10;99.90;;;;;;5130321;28;20205;-76
2022/07/09 00:28:38;;;;;;;2.43;1.33;;;12.00;99.80;;;;;;5132990;28;20183;-75
2022/07/09 00:31:04;;;;;;;3.60;1.67;;;12.00;99.80;;;;;;5130752;28;20278;-76
2022/07/09 00:33:29;;;;;;;7.13;1.47;;;12.00;99.70;;;;;;5119775;28;20179;-76
2022/07/09 00:35:55;;;;;;;2.80;1.20;;;11.90;99.50;;;;;;5120045;28;20219;-76
2022/07/09 00:38:20;;;;;;;3.53;1.60;;;12.00;99.70;;;;;;5127094;28;20208;-76
2022/07/09 00:40:46;;;;;;;2.17;1.27;;;11.90;99.30;;;;;;5103056;28;20658;-75
2022/07/09 00:43:19;;;;;;;6.30;1.90;;;11.90;99.60;;;;;;5111768;28;20179;-76
2022/07/09 00:45:46;;;;;;;5.23;1.40;;;11.80;99.80;;;;;;5123100;28;20199;-75
2022/07/09 00:48:12;;;;;;;5.20;2.03;;;11.80;99.90;;;;;;5112507;28;20417;-76
2022/07/09 00:50:39;;;;;;;5.30;1.00;;;11.80;99.90;;;;;;5123274;27;20467;-76
2022/07/09 00:53:07;;;;;;;3.60;1.40;;;11.70;99.90;;;;;;5120934;27;20417;-76
2022/07/09 00:55:33;;;;;;;3.73;1.37;;;11.70;99.90;;;;;;5118159;27;20425;-75
2022/07/09 00:57:59;;;;;;;2.43;1.30;;;11.70;99.90;;;;;;5136240;27;20997;-76
2022/07/09 01:00:24;;;;;;;2.37;1.60;;;11.70;99.90;;;;;;5120486;27;20508;-76
2022/07/09 01:02:50;;;;;;;2.67;1.40;;;11.70;99.90;;;;;;5122021;27;20250;-76
2022/07/09 01:05:16;;;;;;;8.13;1.70;;;11.60;99.90;;;;;;5123348;27;20288;-76
2022/07/09 01:07:41;;;;;;;2.27;1.30;;;11.60;99.90;;;;;;5115584;28;20179;-76
2022/07/09 01:10:07;;;;;;;2.60;1.50;;;11.50;99.90;;;;;;5124816;27;20687;-76
2022/07/09 01:12:33;;;;;;;2.70;1.37;;;11.60;99.90;;;;;;5119174;27;20300;-75
2022/07/09 01:14:58;;;;;;;9.30;1.53;;;11.50;99.90;;;;;;5116409;28;20417;-76
2022/07/09 01:17:24;;;;;;;2.37;1.30;;;11.60;99.90;;;;;;5131968;27;20219;-76
2022/07/09 01:19:50;;;;;;;5.50;1.37;;;11.50;99.90;;;;;;5131456;27;20176;-76
2022/07/09 01:22:15;;;;;;;2.37;1.50;;;11.50;99.90;;;;;;5104710;28;20226;-76
2022/07/09 01:24:41;;;;;;;3.73;1.60;;;11.60;99.90;;;;;;5120515;27;20194;-75
2022/07/09 01:27:07;;;;;;;4.93;1.53;;;11.50;99.90;;;;;;5129225;27;20183;-76
2022/07/09 01:29:33;;;;;;;5.50;1.60;;;11.50;99.90;;;;;;5134739;27;20171;-75
2022/07/09 01:31:59;;;;;;;6.37;2.10;;;11.50;99.90;;;;;;5128859;27;20467;-76
2022/07/09 01:34:24;;;;;;;5.30;2.10;;;11.40;99.90;;;;;;5144440;27;20191;-75
2022/07/09 01:36:50;;;;;;;12.07;2.13;;;11.40;99.90;;;;;;5134658;27;20184;-75
2022/07/09 01:39:16;;;;;;;3.10;1.67;;;11.30;99.90;;;;;;5121270;28;20458;-75
2022/07/09 01:41:42;;;;;;;4.47;1.33;;;11.30;99.90;;;;;;5128816;27;20192;-73
2022/07/09 01:44:08;;;;;;;2.90;1.37;;;11.30;99.90;;;;;;5159581;27;20199;-75
2022/07/09 01:46:34;;;;;;;13.40;1.67;;;11.30;99.90;;;;;;5156422;27;20223;-75
2022/07/09 01:49:00;;;;;;;2.17;1.30;;;11.30;99.90;;;;;;5137880;27;20178;-75
2022/07/09 01:51:25;;;;;;;2.73;1.50;;;11.20;99.90;;;;;;5161606;27;20472;-75
2022/07/09 01:53:51;;;;;;;5.90;2.00;;;11.20;99.90;;;;;;5161841;27;20226;-75
2022/07/09 01:56:17;;;;;;;6.63;2.03;;;11.20;99.90;;;;;;5153073;27;20209;-76
2022/07/09 01:58:43;;;;;;;2.80;1.40;;;11.20;99.90;;;;;;5142578;27;20194;-76
2022/07/09 02:01:09;;;;;;;3.60;1.57;;;11.10;99.90;;;;;;5132566;27;20569;-76
2022/07/09 02:03:35;;;;;;;3.30;1.90;;;11.10;99.90;;;;;;5115977;28;20416;-76
2022/07/09 02:06:00;;;;;;;5.17;2.03;;;11.00;99.90;;;;;;5115039;28;20172;-75
2022/07/09 02:08:26;;;;;;;5.67;1.87;;;11.00;99.90;;;;;;5114556;28;20172;-76
2022/07/09 02:10:52;;;;;;;3.93;1.53;;;11.00;99.90;;;;;;5127223;27;20799;-76
2022/07/09 02:13:18;;;;;;;3.00;1.83;;;11.00;99.90;;;;;;5114232;28;20891;-76
2022/07/09 02:15:43;;;;;;;2.70;1.33;;;11.00;99.90;;;;;;5129234;27;20171;-76
2022/07/09 02:18:09;;;;;;;3.80;2.00;;;11.00;99.90;;;;;;5134829;27;20555;-75
2022/07/09 02:20:35;;;;;;;2.70;1.40;;;11.00;99.90;;;;;;5122010;27;20252;-76
2022/07/09 02:23:00;;;;;;;6.23;1.77;;;11.00;99.90;;;;;;5114641;27;20187;-75
2022/07/09 02:25:27;;;;;;;4.23;1.40;;;11.00;99.90;;;;;;5124183;27;20266;-76
2022/07/09 02:27:53;;;;;;;4.10;1.57;;;11.00;99.90;;;;;;5113381;27;20188;-76
2022/07/09 02:30:18;;;;;;;2.67;1.40;;;11.00;99.90;;;;;;5111878;27;20543;-76
2022/07/09 02:32:44;;;;;;;4.23;1.70;;;10.90;99.90;;;;;;5120206;27;20175;-76
2022/07/09 02:35:10;;;;;;;7.80;2.27;;;10.90;99.90;;;;;;5127880;27;20172;-76
2022/07/09 02:37:35;;;;;;;6.43;1.80;;;10.90;99.90;;;;;;5127332;27;20175;-76
2022/07/09 02:40:01;;;;;;;6.70;2.67;;;10.80;99.90;;;;;;5129635;27;20540;-76
2022/07/09 02:42:27;;;;;;;3.40;1.77;;;10.80;99.90;;;;;;5107203;27;20172;-76
2022/07/09 02:44:53;;;;;;;2.60;1.63;;;10.80;99.90;;;;;;5113785;28;20413;-76
2022/07/09 02:47:18;;;;;;;8.47;2.00;;;10.80;99.90;;;;;;5113850;28;20184;-76
2022/07/09 02:49:44;;;;;;;3.05;1.60;;;10.80;99.90;;;;;;5113588;28;20194;-76
2022/07/09 02:52:09;;;;;;;9.03;2.30;;;10.80;99.90;;;;;;5114342;27;20180;-76
2022/07/09 02:54:35;;;;;;;4.37;2.50;;;10.80;99.90;;;;;;5113793;28;20211;-75
2022/07/09 02:57:01;;;;;;;4.30;2.03;;;10.80;99.90;;;;;;5113471;28;20207;-76
2022/07/09 02:59:27;;;;;;;3.17;1.70;;;10.80;99.90;;;;;;5113748;28;20250;-76
2022/07/09 03:01:52;;;;;;;3.70;1.50;;;10.80;99.90;;;;;;5110636;28;20263;-76
2022/07/09 03:04:18;;;;;;;3.93;1.43;;;10.60;99.90;;;;;;5125693;27;20186;-76
2022/07/09 03:06:44;;;;;;;6.07;2.20;;;10.70;99.90;;;;;;5133760;27;20182;-76
2022/07/09 03:09:10;;;;;;;2.43;1.50;;;10.80;99.90;;;;;;5131704;27;20190;-76
2022/07/09 03:11:36;;;;;;;3.63;1.80;;;10.70;99.90;;;;;;5133028;27;20324;-76
2022/07/09 03:14:01;;;;;;;5.57;1.90;;;10.70;99.90;;;;;;5118751;27;20854;-76
2022/07/09 03:16:27;;;;;;;5.63;2.23;;;10.60;99.90;;;;;;5126022;27;20191;-76
2022/07/09 03:18:53;;;;;;;3.20;1.37;;;10.60;99.90;;;;;;5112210;28;20277;-76
2022/07/09 03:21:18;;;;;;;3.80;1.57;;;10.50;99.90;;;;;;5107769;28;20180;-76
2022/07/09 03:23:44;;;;;;;9.83;2.00;;;10.50;99.90;;;;;;5103749;28;20259;-76
2022/07/09 03:26:10;;;;;;;3.03;1.53;;;10.40;99.90;;;;;;5115317;27;20274;-76
2022/07/09 03:28:35;;;;;;;2.83;1.60;;;10.40;99.90;;;;;;5123408;27;20188;-76
2022/07/09 03:31:01;;;;;;;2.83;1.63;;;10.40;99.90;;;;;;5112372;28;20199;-76
2022/07/09 03:33:27;;;;;;;4.33;2.13;;;10.50;99.90;;;;;;5105256;27;20183;-76
2022/07/09 03:35:56;;;;;;;5.20;1.80;;;10.50;99.90;;;;;;5133852;27;20210;-76
2022/07/09 03:38:23;;;;;;;10.43;1.90;;;10.60;99.90;;;;;;5114188;27;20661;-76
2022/07/09 03:40:49;;;;;;;3.07;1.60;;;10.50;99.90;;;;;;5113022;28;20760;-76
2022/07/09 03:43:15;;;;;;;5.87;2.30;;;10.50;99.90;;;;;;5112584;28;20429;-76
2022/07/09 03:45:40;;;;;;;4.87;1.57;;;10.50;99.90;;;;;;5122015;27;20413;-76
2022/07/09 03:48:07;;;;;;;4.20;2.10;;;10.50;99.90;;;;;;5132705;27;20187;-76
2022/07/09 03:50:32;;;;;;;3.90;1.70;;;10.50;99.90;;;;;;5112402;28;20210;-76
2022/07/09 03:52:58;;;;;;;3.70;1.60;;;10.50;99.90;;;;;;5112262;28;20804;-76
2022/07/09 03:55:23;;;;;;;2.57;1.40;;;10.50;99.90;;;;;;5126931;27;20641;-76
2022/07/09 03:57:49;;;;;;;4.17;1.80;;;10.50;99.90;;;;;;5112750;28;20175;-76
2022/07/09 04:00:15;;;;;;;3.27;1.80;;;10.50;99.90;;;;;;5113613;27;20538;-76
2022/07/09 04:02:41;;;;;;;7.03;2.13;;;10.50;99.90;;;;;;5122516;28;20452;-76
2022/07/09 04:05:08;;;;;;;5.47;2.50;;;10.50;99.90;;;;;;5126920;28;20258;-76
2022/07/09 04:07:34;;;;;;;3.50;1.37;;;10.50;99.90;;;;;;5126149;27;20580;-76
2022/07/09 04:10:00;;;;;;;9.83;1.80;;;10.50;99.90;;;;;;5124178;28;20912;-76
2022/07/09 04:12:25;;;;;;;4.70;2.27;;;10.50;99.90;;;;;;5121705;27;20194;-76
2022/07/09 04:14:51;;;;;;;4.87;1.73;;;10.50;99.90;;;;;;5102164;28;20184;-76
2022/07/09 04:17:17;;;;;;;3.20;1.40;;;10.50;99.90;;;;;;5112086;28;20209;-76
2022/07/09 04:19:43;;;;;;;7.43;1.50;;;10.60;99.90;;;;;;5121004;28;20175;-76
2022/07/09 04:22:08;;;;;;;4.10;2.03;;;10.60;99.90;;;;;;5106186;28;20629;-76
2022/07/09 04:24:34;;;;;;;2.90;1.57;;;10.60;99.90;;;;;;5112808;28;20187;-76
2022/07/09 04:27:00;;;;;;;3.20;1.40;;;10.60;99.90;;;;;;5129106;27;20236;-76
2022/07/09 04:29:25;;;;;;;2.33;1.50;;;10.60;99.90;;;;;;5136121;27;20187;-76
2022/07/09 04:31:51;;;;;;;7.40;2.00;;;10.60;99.90;;;;;;5116693;27;20207;-76
2022/07/09 04:34:16;;;;;;;6.40;1.90;;;10.60;99.90;;;;;;5099405;28;20182;-76
2022/07/09 04:36:42;;;;;;;5.83;2.33;;;10.60;99.90;;;;;;5119950;27;20240;-76
2022/07/09 04:39:09;;;;;;;4.03;1.63;;;10.60;99.90;;;;;;5116340;28;20225;-76
2022/07/09 04:41:35;;;;;;;4.70;2.07;;;10.70;99.90;;;;;;5122642;27;20637;-76
2022/07/09 04:44:01;;;;;;;6.20;2.37;;;10.70;99.90;;;;;;5123979;27;20445;-76
2022/07/09 04:46:27;;;;;;;2.30;1.30;;;10.70;99.90;;;;;;5135464;27;20198;-76
2022/07/09 04:48:53;;;;;;;3.77;1.50;;;10.70;99.90;;;;;;5136792;27;20175;-76
2022/07/09 04:51:18;;;;;;;9.13;2.87;;;10.70;99.90;;;;;;5123224;27;20987;-76
2022/07/09 04:53:44;;;;;;;3.67;2.13;;;10.70;99.90;;;;;;5116296;28;20535;-76
2022/07/09 04:56:09;;;;;;;11.20;1.87;;;10.70;99.90;;;;;;5116036;28;20259;-76
2022/07/09 04:58:36;;;;;;;3.50;1.70;;;10.80;99.90;;;;;;5130477;27;20179;-76
2022/07/09 05:01:03;;;;;;;4.80;1.40;;;10.90;99.90;;;;;;5115716;28;20187;-76
2022/07/09 05:03:29;;;;;;;5.50;2.40;;;11.00;99.90;;;;;;5101667;27;20442;-76
2022/07/09 05:05:54;;;;;;;5.13;1.80;;;11.10;99.90;;;;;;5100523;27;20889;-76
2022/07/09 05:08:20;;;;;;;7.93;1.97;;;11.20;99.90;;;;;;5108768;28;20267;-76
2022/07/09 05:10:46;;;;;;;3.70;1.80;;;11.20;99.90;;;;;;5120347;27;20210;-76
2022/07/09 05:13:11;;;;;;;4.33;1.80;;;11.20;99.90;;;;;;5135771;27;20171;-76
2022/07/09 05:15:37;;;;;;;3.90;1.90;;;11.30;99.90;;;;;;5132900;27;20693;-76
2022/07/09 05:18:03;;;;;;;2.73;1.70;;;11.30;99.90;;;;;;5115164;28;20579;-76
2022/07/09 05:20:29;;;;;;;5.00;2.27;;;11.40;99.90;;;;;;5116138;27;20191;-76
2022/07/09 05:22:54;;;;;;;3.87;2.10;;;11.40;99.90;;;;;;5124856;27;20190;-76
2022/07/09 05:25:20;;;;;;;3.07;2.17;;;11.60;99.90;;;;;;5135843;27;20191;-76
2022/07/09 05:27:48;;;;;;;2.93;1.90;;;11.70;99.90;;;;;;5121677;27;20179;-76
2022/07/09 05:30:15;;;;;;;2.60;1.40;;;11.70;99.90;;;;;;5134768;27;20199;-76
2022/07/09 05:32:41;;;;;;;7.80;1.60;;;11.80;99.90;;;;;;5118617;27;20447;-76
2022/07/09 05:35:07;;;;;;;3.07;1.73;;;11.80;99.90;;;;;;5124527;27;20428;-76
2022/07/09 05:37:33;;;;;;;8.00;1.77;;;11.90;99.90;;;;;;5119806;27;20422;-76
2022/07/09 05:40:01;;;;;;;5.03;2.00;;;11.90;99.90;;;;;;5115000;28;20417;-76
2022/07/09 05:42:27;;;;;;;3.20;1.73;;;12.00;99.90;;;;;;5114970;28;20406;-76
2022/07/09 05:44:52;;;;;;;5.43;2.00;;;12.10;99.90;;;;;;5129500;27;20410;-76
2022/07/09 05:47:18;;;;;;;3.17;1.80;;;12.20;99.90;;;;;;5115314;28;20187;-76
2022/07/09 05:49:43;;;;;;;6.20;1.63;;;12.30;99.90;;;;;;5114953;28;20175;-76
2022/07/09 05:52:09;;;;;;;4.73;2.40;;;12.40;99.90;;;;;;5115208;27;20199;-76
2022/07/09 05:54:36;;;;;;;3.43;1.80;;;12.50;99.90;;;;;;5113060;28;20220;-76
2022/07/09 05:57:01;;;;;;;7.10;2.40;;;12.60;99.90;;;;;;5114050;28;20255;-76
2022/07/09 05:59:27;;;;;;;4.13;1.80;;;12.70;99.90;;;;;;5114056;28;20492;-76
2022/07/09 06:01:53;;;;;;;4.13;1.70;;;12.80;99.90;;;;;;5127883;27;20181;-76
2022/07/09 06:04:18;;;;;;;7.87;2.70;;;12.90;99.90;;;;;;5110193;28;20184;-76
2022/07/09 06:06:44;;;;;;;7.33;2.40;;;13.00;99.90;;;;;;5124598;27;20198;-76
2022/07/09 06:09:10;;;;;;;2.50;1.97;;;13.10;99.90;;;;;;5120123;27;20172;-76
2022/07/09 06:11:36;;;;;;;5.60;2.27;;;13.30;99.90;;;;;;5121414;27;20457;-76
2022/07/09 06:14:01;;;;;;;4.63;2.50;;;13.40;99.90;;;;;;5111586;28;20176;-76
2022/07/09 06:16:27;;;;;;;3.10;1.80;;;13.50;99.90;;;;;;5114155;28;20263;-76
2022/07/09 06:18:52;;;;;;;5.07;1.73;;;13.60;99.90;;;;;;5110111;28;20199;-76
2022/07/09 06:21:18;;;;;;;8.07;2.83;;;13.80;99.90;;;;;;5098765;28;20184;-76
2022/07/09 06:23:44;;;;;;;4.10;2.07;;;14.00;99.90;;;;;;5101490;28;20233;-76
2022/07/09 06:26:10;;;;;;;3.97;1.57;;;14.10;99.90;;;;;;5112671;27;20673;-76
2022/07/09 06:28:37;;;;;;;4.90;1.90;;;14.20;99.90;;;;;;5091941;28;20188;-76
2022/07/09 06:31:03;;;;;;;3.40;1.87;;;14.30;99.90;;;;;;5108628;28;20663;-76
2022/07/09 06:33:28;;;;;;;5.90;1.70;;;14.40;99.90;;;;;;5094800;28;20430;-76
2022/07/09 06:35:54;;;;;;;2.90;1.50;;;14.60;99.90;;;;;;5097151;28;20188;-76
2022/07/09 06:38:20;;;;;;;14.23;1.60;;;14.70;99.90;;;;;;5105411;28;20625;-74
2022/07/09 06:40:45;;;;;;;3.90;1.90;;;14.90;99.90;;;;;;5095216;28;20908;-74
2022/07/09 06:43:12;;;;;;;6.00;1.93;;;15.00;99.90;;;;;;5108829;28;20191;-74
2022/07/09 06:45:38;;;;;;;3.50;1.60;;;15.20;99.60;;;;;;5113664;28;20630;-74
2022/07/09 06:48:04;;;;;;;4.30;1.87;;;15.30;99.20;;;;;;5112378;28;20508;-75
2022/07/09 06:50:30;;;;;;;5.03;2.10;;;15.40;99.00;;;;;;5110516;27;20468;-74
2022/07/09 06:52:55;;;;;;;4.70;1.70;;;15.50;98.70;;;;;;5112741;28;20417;-74
2022/07/09 06:55:21;;;;;;;4.40;1.50;;;15.60;98.40;;;;;;5117128;27;20640;-74
2022/07/09 06:57:47;;;;;;;4.20;1.33;;;15.80;97.00;;;;;;5123509;27;20183;-74
2022/07/09 07:00:13;;;;;;;3.10;1.43;;;16.00;96.90;;;;;;5115200;27;20421;-74
2022/07/09 07:02:39;;;;;;;5.10;1.57;;;16.20;97.00;;;;;;5125202;27;20195;-74
2022/07/09 07:05:05;;;;;;;12.20;1.40;;;16.40;96.40;;;;;;5120655;27;20524;-75
2022/07/09 07:07:31;;;;;;;8.70;2.27;;;16.60;95.50;;;;;;5098408;28;20607;-74
2022/07/09 07:09:56;;;;;;;5.23;1.57;;;16.90;95.40;;;;;;5101532;27;20422;-74
2022/07/09 07:12:22;;;;;;;4.23;1.70;;;17.20;95.50;;;;;;5109921;27;20625;-74
2022/07/09 07:14:48;;;;;;;2.97;1.60;;;17.50;95.10;;;;;;5114418;27;20184;-77
2022/07/09 07:17:13;;;;;;;3.40;1.30;;;17.80;93.80;;;;;;5098368;28;20207;-77
2022/07/09 07:19:39;;;;;;;2.90;1.67;;;18.10;92.90;;;;;;5112879;28;20179;-77
2022/07/09 07:22:05;;;;;;;3.40;0.90;;;18.40;92.10;;;;;;5111297;28;20180;-77
2022/07/09 07:24:30;;;;;;;3.07;1.13;;;18.70;91.40;;;;;;5118425;27;20211;-77
2022/07/09 07:26:57;;;;;;;3.40;1.10;;;19.10;90.10;;;;;;5113204;28;20266;-76
2022/07/09 07:29:23;;;;;;;4.80;1.57;;;19.50;89.50;;;;;;5106264;28;20217;-77
2022/07/09 07:31:49;;;;;;;5.00;1.17;;;19.70;88.30;;;;;;5110721;27;20474;-77
2022/07/09 07:34:15;;;;;;;2.47;1.20;;;19.90;86.60;;;;;;5115896;27;20517;-77
2022/07/09 07:36:41;;;;;;;3.53;1.80;;;20.10;85.40;;;;;;5112439;28;20517;-76
2022/07/09 07:39:06;;;;;;;3.40;1.10;;;20.40;82.30;;;;;;5097946;28;20563;-76
2022/07/09 07:41:32;;;;;;;7.30;1.30;;;20.60;81.20;;;;;;5092329;28;20749;-76
2022/07/09 07:43:58;;;;;;;4.03;1.27;;;21.10;84.00;;;;;;5115892;27;20187;-77
2022/07/09 07:46:23;;;;;;;2.47;1.40;;;22.00;82.20;;;;;;5108041;27;20182;-77
2022/07/09 07:48:50;;;;;;;5.13;1.17;;;23.10;80.00;;;;;;5115595;27;20168;-77
2022/07/09 07:51:16;;;;;;;5.37;1.10;;;24.50;71.20;;;;;;5109330;28;20293;-77
2022/07/09 07:53:42;;;;;;;5.93;1.17;;;24.70;70.50;;;;;;5110712;28;20633;-77
2022/07/09 07:56:08;;;;;;;5.75;1.98;;;25.30;68.60;;;;;;5105236;28;20655;-77
2022/07/09 07:58:35;;;;;;;2.50;0.98;;;25.40;69.10;;;;;;5112745;27;20211;-76
2022/07/09 08:01:01;;;;;;;10.02;1.35;;;26.60;66.30;;;;;;5107894;28;20175;-77
2022/07/09 08:03:27;;;;;;;10.27;1.60;;;27.20;63.70;;;;;;5091913;28;20201;-77
2022/07/09 08:05:53;;;;;;;1.85;0.85;;;27.40;65.10;;;;;;5103959;28;20175;-77
2022/07/09 08:08:18;;;;;;;8.63;1.58;;;28.30;61.00;;;;;;5103115;28;20313;-77
2022/07/09 08:10:45;;;;;;;7.00;1.50;;;28.00;60.80;;;;;;5111262;28;20199;-77
2022/07/09 08:13:12;;;;;;;3.15;0.70;;;28.10;59.80;;;;;;5107557;28;20256;-77
2022/07/09 08:15:38;;;;;;;4.18;1.13;;;28.50;60.00;;;;;;5110513;28;20167;-78
2022/07/09 08:18:04;;;;;;;3.65;1.00;;;28.80;59.20;;;;;;5095876;28;20208;-77
2022/07/09 08:20:29;;;;;;;2.80;1.35;;;28.40;59.10;;;;;;5112038;28;20183;-77
2022/07/09 08:22:55;;;;;;;2.08;1.10;;;27.60;60.80;;;;;;5113904;28;20186;-77
2022/07/09 08:25:21;;;;;;;2.38;1.10;;;27.80;60.90;;;;;;5122773;28;20199;-78
2022/07/09 08:27:49;;;;;;;2.45;1.13;;;27.30;63.70;;;;;;5105956;28;20214;-77
2022/07/09 08:30:15;;;;;;;5.95;1.73;;;27.90;61.20;;;;;;5110285;28;20175;-77
2022/07/09 08:32:40;;;;;;;2.50;0.90;;;27.70;59.80;;;;;;5106863;28;20190;-77
2022/07/09 08:35:07;;;;;;;1.90;0.90;;;27.50;60.80;;;;;;5107602;28;20183;-77
2022/07/09 08:37:32;;;;;;;5.88;1.00;;;27.60;61.30;;;;;;5111637;28;20176;-77
2022/07/09 08:40:00;;;;;;;2.08;0.85;;;28.10;59.30;;;;;;5104641;28;20186;-77
2022/07/09 08:42:26;;;;;;;3.90;1.25;;;28.00;59.10;;;;;;5109024;28;20179;-77
2022/07/09 08:44:54;;;;;;;5.00;1.55;;;27.70;60.00;;;;;;5104220;28;20175;-77
2022/07/09 08:47:21;;;;;;;1.90;0.90;;;27.90;60.10;;;;;;5106419;28;20208;-77
2022/07/09 08:49:48;;;;;;;2.22;1.00;;;28.00;59.40;;;;;;5108586;28;20186;-77
2022/07/09 08:52:15;;;;;;;2.30;0.98;;;27.30;64.10;;;;;;5111530;28;20231;-77
2022/07/09 08:54:42;;;;;;;4.43;1.00;;;27.30;61.30;;;;;;5107391;28;20183;-77
2022/07/09 08:57:08;;;;;;;2.60;0.90;;;27.50;61.20;;;;;;5110914;28;20316;-78
2022/07/09 08:59:34;;;;;;;3.50;1.55;;;27.40;60.90;;;;;;5111577;28;20225;-77
2022/07/09 09:02:08;;;;;;;5.03;1.30;;;27.30;60.60;;;;;;5110895;28;20270;-77
2022/07/09 09:04:34;;;;;;;2.00;0.90;;;26.90;63.40;;;;;;5108715;28;20640;-77
2022/07/09 09:07:23;;;;;;;2.88;1.08;;;26.40;64.70;;;;;;5108771;28;20179;-77
2022/07/09 09:09:49;;;;;;;2.28;0.75;;;26.10;63.40;;;;;;5110976;28;20191;-77
2022/07/09 09:12:15;;;;;;;5.60;1.67;;;25.30;64.50;;;;;;5108607;28;20199;-77
2022/07/09 09:14:49;;;;;;;4.10;0.97;;;24.40;67.10;;;;;;5115434;28;20175;-77
2022/07/09 09:17:15;;;;;;;2.90;1.20;;;23.80;70.10;;;;;;5101450;27;20186;-77
2022/07/09 09:19:42;;;;;;;2.57;1.10;;;24.10;69.40;;;;;;5105147;27;20236;-77
2022/07/09 09:22:08;;;;;;;2.10;1.00;;;23.90;71.80;;;;;;5131137;27;20171;-77
2022/07/09 09:24:34;;;;;;;5.67;0.80;;;23.60;71.70;;;;;;5119503;27;20171;-78
2022/07/09 09:27:01;;;;;;;3.53;0.70;;;23.30;71.40;;;;;;5116001;28;20179;-77
2022/07/09 09:29:28;;;;;;;1.93;0.80;;;23.10;73.30;;;;;;5110283;28;20713;-77
2022/07/09 09:31:54;;;;;;;5.13;1.10;;;22.60;74.00;;;;;;5108014;28;20599;-77
2022/07/09 09:34:21;;;;;;;2.53;0.97;;;22.40;72.30;;;;;;5111538;27;20428;-77
2022/07/09 09:36:50;;;;;;;7.57;1.17;;;22.10;73.10;;;;;;5104998;28;20427;-77
2022/07/09 09:39:27;;;;;;;2.20;1.03;;;21.90;73.50;;;;;;5107500;27;20417;-77
2022/07/09 09:41:56;;;;;;;1.60;0.70;;;21.70;74.80;;;;;;5113905;28;20449;-77
2022/07/09 09:44:26;;;;;;;7.00;1.60;;;22.10;79.10;;;;;;5109881;28;20428;-76
2022/07/09 09:46:53;;;;;;;2.73;0.80;;;23.10;78.50;;;;;;5108767;28;20472;-79
2022/07/09 09:49:20;;;;;;;5.40;1.20;;;23.80;71.30;;;;;;5108060;28;20512;-76
2022/07/09 09:52:10;;;;;;;5.67;1.27;;;24.50;69.80;;;;;;5117444;27;20198;-77
2022/07/09 09:54:45;;;;;;;11.43;1.00;;;25.20;68.40;;;;;;5104026;27;20184;-77
2022/07/09 09:57:13;;;;;;;4.93;1.10;;;25.60;68.00;;;;;;5114268;28;20167;-77
2022/07/09 09:59:40;;;;;;;2.45;0.85;;;25.60;65.60;;;;;;5109527;28;20175;-76
2022/07/09 10:02:11;;;;;;;4.05;0.98;;;26.30;62.00;;;;;;5114811;28;20224;-77
2022/07/09 10:04:41;;;;;;;3.88;0.82;;;26.60;61.30;;;;;;5105871;28;20661;-78
2022/07/09 10:07:08;;;;;;;7.90;0.80;;;26.40;62.10;;;;;;5104115;28;20190;-79
2022/07/09 10:09:34;;;;;;;4.72;1.73;;;26.30;62.50;;;;;;5109148;27;20209;-78
2022/07/09 10:12:00;;;;;;;2.90;0.88;;;26.50;61.60;;;;;;5102665;28;20203;-77
2022/07/09 10:14:26;;;;;;;4.70;1.13;;;26.20;61.90;;;;;;5104848;28;20175;-78
2022/07/09 10:16:52;;;;;;;1.70;0.73;;;26.20;61.00;;;;;;5099332;28;20195;-78
2022/07/09 10:19:26;;;;;;;1.60;0.80;;;25.90;62.40;;;;;;5114643;27;20175;-79
2022/07/09 10:21:53;;;;;;;1.60;0.70;;;25.60;64.90;;;;;;5117807;28;20175;-80
2022/07/09 10:24:26;;;;;;;1.95;0.63;;;25.30;63.70;;;;;;5126785;28;20191;-79
2022/07/09 10:26:52;;;;;;;1.50;0.70;;;24.80;66.70;;;;;;5142337;27;20205;-79
2022/07/09 10:29:26;;;;;;;2.90;0.80;;;24.90;65.40;;;;;;5124303;27;20258;-79
2022/07/09 10:31:56;;;;;;;1.50;0.60;;;25.50;63.40;;;;;;5111887;27;20197;-79
2022/07/09 10:34:31;;;;;;;1.60;0.70;;;25.30;65.30;;;;;;5117031;28;20259;-79
2022/07/09 10:37:02;;;;;;;2.70;1.13;;;24.80;66.30;;;;;;5107320;28;20408;-79
2022/07/09 10:39:28;;;;;;;2.57;1.00;;;24.90;63.70;;;;;;5130410;27;20413;-79
2022/07/09 10:42:02;;;;;;;1.70;0.77;;;24.90;66.20;;;;;;5127549;27;20412;-79
2022/07/09 10:44:36;;;;;;;1.50;0.60;;;25.00;65.10;;;;;;5139586;27;20427;-79
2022/07/09 10:47:03;;;;;;;1.97;0.97;;;24.60;66.70;;;;;;5100901;28;20418;-79
2022/07/09 10:49:29;;;;;;;2.60;0.83;;;24.40;65.80;;;;;;5099934;28;20421;-79
2022/07/09 10:51:58;;;;;;;3.17;1.00;;;24.40;64.20;;;;;;5117135;28;20492;-77
2022/07/09 10:54:25;;;;;;;2.00;0.97;;;24.70;65.30;;;;;;5097108;28;20406;-77
2022/07/09 10:56:52;;;;;;;5.50;1.30;;;24.80;67.00;;;;;;5115205;28;20410;-77
2022/07/09 10:59:19;;;;;;;1.60;0.73;;;25.00;64.80;;;;;;5117110;28;20413;-77
2022/07/09 11:01:45;;;;;;;1.70;0.73;;;25.00;63.00;;;;;;5107567;28;20914;-77
2022/07/09 11:04:13;;;;;;;1.70;0.60;;;24.90;65.50;;;;;;5114155;28;20432;-77
2022/07/09 11:06:46;;;;;;;3.30;0.87;;;25.40;66.20;;;;;;5113759;28;20663;-77
2022/07/09 11:09:13;;;;;;;2.00;0.80;;;25.60;66.40;;;;;;5106274;27;20448;-77
2022/07/09 11:11:42;;;;;;;1.70;0.80;;;25.60;65.90;;;;;;5119740;27;20487;-77
2022/07/09 11:14:09;;;;;;;2.03;0.93;;;25.90;62.40;;;;;;5119645;27;20445;-77
2022/07/09 11:16:35;;;;;;;3.00;1.40;;;25.90;61.60;;;;;;5106731;28;20424;-78
2022/07/09 11:19:13;;;;;;;4.23;1.27;;;25.80;64.30;;;;;;5112772;27;20417;-77
2022/07/09 11:21:38;;;;;;;1.80;0.80;;;25.60;67.30;;;;;;5111756;27;20187;-77
2022/07/09 11:24:13;;;;;;;2.93;1.10;;;26.20;62.20;;;;;;5112302;28;20413;-77
2022/07/09 11:26:39;;;;;;;1.40;0.50;;;26.20;64.30;;;;;;5100702;28;20239;-78
2022/07/09 11:29:08;;;;;;;2.53;0.90;;;26.50;60.60;;;;;;5103951;28;20595;-77
2022/07/09 11:31:33;;;;;;;1.70;0.80;;;25.60;64.50;;;;;;5106582;27;20210;-77
2022/07/09 11:34:11;;;;;;;4.47;1.10;;;25.30;65.90;;;;;;5117702;27;20428;-80
2022/07/09 11:36:42;;;;;;;2.13;0.60;;;25.10;66.20;;;;;;5112998;28;20175;-80
2022/07/09 11:39:07;;;;;;;2.83;0.83;;;24.80;66.10;;;;;;5109031;28;20401;-78
2022/07/09 11:41:43;;;;;;;1.80;0.90;;;24.50;67.10;;;;;;5121096;28;20431;-78
2022/07/09 11:44:11;;;;;;;2.37;1.10;;;24.40;67.50;;;;;;5117168;28;20182;-79
2022/07/09 11:46:37;;;;;;;2.07;0.93;;;24.40;68.10;;;;;;5111274;28;20488;-79
2022/07/09 11:49:16;;;;;;;3.07;0.80;;;24.30;67.60;;;;;;5120412;28;20773;-78
2022/07/09 11:51:45;;;;;;;1.97;0.80;;;24.30;69.30;;;;;;5120616;27;20656;-80
2022/07/09 11:54:11;;;;;;;3.30;0.83;;;24.30;71.00;;;;;;5116513;28;20456;-78
2022/07/09 11:56:45;;;;;;;1.60;0.77;;;24.30;67.50;;;;;;5123466;27;20415;-79
2022/07/09 11:59:11;;;;;;;8.97;1.13;;;24.20;68.00;;;;;;5118779;27;20175;-79
2022/07/09 12:01:40;;;;;;;2.33;1.00;;;24.20;67.20;;;;;;5112933;28;20922;-78
2022/07/09 12:04:06;;;;;;;1.97;0.67;;;24.30;68.50;;;;;;5123075;27;20806;-77
2022/07/09 12:06:32;;;;;;;3.00;1.23;;;24.10;69.20;;;;;;5110591;28;20476;-78
2022/07/09 12:09:04;;;;;;;2.60;0.97;;;24.10;69.00;;;;;;5109863;28;20285;-78
2022/07/09 12:11:30;;;;;;;1.60;0.70;;;24.50;69.20;;;;;;5108357;28;20453;-78
2022/07/09 12:13:57;;;;;;;2.83;1.10;;;24.90;70.60;;;;;;5111873;28;20429;-79
2022/07/09 12:16:22;;;;;;;2.57;1.10;;;25.10;68.70;;;;;;5105283;28;20432;-79
2022/07/09 12:18:48;;;;;;;3.07;1.00;;;25.30;66.40;;;;;;5106524;28;20437;-79
2022/07/09 12:21:13;;;;;;;4.90;1.03;;;25.40;64.10;;;;;;5100846;28;20190;-78
2022/07/09 12:23:39;;;;;;;2.60;0.93;;;25.10;66.80;;;;;;5106430;28;20664;-79
2022/07/09 12:26:05;;;;;;;1.80;0.90;;;25.10;66.10;;;;;;5123871;28;20216;-78
2022/07/09 12:28:30;;;;;;;4.37;1.10;;;25.20;66.20;;;;;;5118876;28;20257;-79
2022/07/09 12:30:56;;;;;;;2.67;0.93;;;25.20;66.60;;;;;;5117166;28;20198;-79
2022/07/09 12:33:22;;;;;;;2.10;1.00;;;25.30;67.60;;;;;;5113670;28;20586;-79
2022/07/09 12:35:47;;;;;;;2.47;1.00;;;25.80;65.40;;;;;;5111350;28;20171;-79
2022/07/09 12:38:13;;;;;;;3.40;1.10;;;26.00;68.00;;;;;;5121114;28;20701;-79
2022/07/09 12:40:39;;;;;;;2.63;0.90;;;26.40;63.30;;;;;;5110287;27;20175;-79
2022/07/09 12:43:04;;;;;;;1.90;0.80;;;26.50;63.40;;;;;;5118944;28;20190;-79